sensor_id;sensor_type;location;lat;lon;timestamp;P1;durP1;ratioP1;P2;durP2;ratioP2
51961;SDS011;37986;51.238;17.128;2022-07-21T00:01:34;16.45;;;7.62;;
51961;SDS011;37986;51.238;17.128;2022-07-21T00:04:01;8.20;;;6.95;;
51961;SDS011;37986;51.238;17.128;2022-07-21T00:06:27;11.18;;;6.97;;
51961;SDS011;37986;51.238;17.128;2022-07-21T00:08:53;13.62;;;7.08;;
51961;SDS011;37986;51.238;17.128;2022-07-21T00:11:19;7.95;;;6.60;;
51961;SDS011;37986;51.238;17.128;2022-07-21T00:13:45;12.23;;;7.33;;
51961;SDS011;37986;51.238;17.128;2022-07-21T00:16:11;9.75;;;7.75;;
51961;SDS011;37986;51.238;17.128;2022-07-21T00:18:37;11.70;;;6.78;;
51961;SDS011;37986;51.238;17.128;2022-07-21T00:21:03;13.25;;;7.25;;
51961;SDS011;37986;51.238;17.128;2022-07-21T00:23:30;9.95;;;7.22;;
51961;SDS011;37986;51.238;17.128;2022-07-21T00:25:56;13.00;;;7.22;;
51961;SDS011;37986;51.238;17.128;2022-07-21T00:28:22;9.95;;;7.33;;
51961;SDS011;37986;51.238;17.128;2022-07-21T00:30:48;9.83;;;7.35;;
51961;SDS011;37986;51.238;17.128;2022-07-21T00:33:14;11.65;;;6.95;;
51961;SDS011;37986;51.238;17.128;2022-07-21T00:35:40;14.00;;;7.58;;
51961;SDS011;37986;51.238;17.128;2022-07-21T00:38:06;13.58;;;7.80;;
51961;SDS011;37986;51.238;17.128;2022-07-21T00:40:32;10.68;;;7.40;;
51961;SDS011;37986;51.238;17.128;2022-07-21T00:42:58;9.93;;;6.95;;
51961;SDS011;37986;51.238;17.128;2022-07-21T00:45:24;13.55;;;7.87;;
51961;SDS011;37986;51.238;17.128;2022-07-21T00:47:51;12.23;;;7.60;;
51961;SDS011;37986;51.238;17.128;2022-07-21T00:50:18;10.85;;;7.45;;
51961;SDS011;37986;51.238;17.128;2022-07-21T00:52:46;9.28;;;6.83;;
51961;SDS011;37986;51.238;17.128;2022-07-21T00:55:14;10.28;;;7.33;;
51961;SDS011;37986;51.238;17.128;2022-07-21T00:57:44;13.85;;;7.35;;
51961;SDS011;37986;51.238;17.128;2022-07-21T01:00:12;8.90;;;6.92;;
51961;SDS011;37986;51.238;17.128;2022-07-21T01:05:10;11.22;;;7.90;;
51961;SDS011;37986;51.238;17.128;2022-07-21T01:07:41;13.17;;;7.90;;
51961;SDS011;37986;51.238;17.128;2022-07-21T01:10:10;11.90;;;7.55;;
51961;SDS011;37986;51.238;17.128;2022-07-21T01:12:37;9.43;;;6.80;;
51961;SDS011;37986;51.238;17.128;2022-07-21T01:15:05;12.58;;;7.80;;
51961;SDS011;37986;51.238;17.128;2022-07-21T01:17:33;10.55;;;7.40;;
51961;SDS011;37986;51.238;17.128;2022-07-21T01:20:07;13.95;;;7.67;;
51961;SDS011;37986;51.238;17.128;2022-07-21T01:22:37;11.55;;;7.50;;
51961;SDS011;37986;51.238;17.128;2022-07-21T01:25:06;12.60;;;7.70;;
51961;SDS011;37986;51.238;17.128;2022-07-21T01:27:33;13.13;;;7.65;;
51961;SDS011;37986;51.238;17.128;2022-07-21T01:29:59;11.53;;;7.90;;
51961;SDS011;37986;51.238;17.128;2022-07-21T01:32:25;16.93;;;7.65;;
51961;SDS011;37986;51.238;17.128;2022-07-21T01:34:52;8.70;;;7.53;;
51961;SDS011;37986;51.238;17.128;2022-07-21T01:37:21;12.45;;;7.55;;
51961;SDS011;37986;51.238;17.128;2022-07-21T01:39:49;12.88;;;9.68;;
51961;SDS011;37986;51.238;17.128;2022-07-21T01:42:35;14.70;;;8.20;;
51961;SDS011;37986;51.238;17.128;2022-07-21T01:45:01;12.23;;;8.70;;
51961;SDS011;37986;51.238;17.128;2022-07-21T01:47:30;10.13;;;7.70;;
51961;SDS011;37986;51.238;17.128;2022-07-21T01:49:57;8.23;;;7.20;;
51961;SDS011;37986;51.238;17.128;2022-07-21T01:52:23;10.05;;;7.70;;
51961;SDS011;37986;51.238;17.128;2022-07-21T01:54:50;18.02;;;7.85;;
51961;SDS011;37986;51.238;17.128;2022-07-21T01:57:16;9.18;;;6.90;;
51961;SDS011;37986;51.238;17.128;2022-07-21T01:59:42;11.73;;;7.10;;
51961;SDS011;37986;51.238;17.128;2022-07-21T02:02:10;11.78;;;7.22;;
51961;SDS011;37986;51.238;17.128;2022-07-21T02:04:36;11.50;;;7.83;;
51961;SDS011;37986;51.238;17.128;2022-07-21T02:07:02;15.50;;;7.65;;
51961;SDS011;37986;51.238;17.128;2022-07-21T02:09:28;12.23;;;7.20;;
51961;SDS011;37986;51.238;17.128;2022-07-21T02:11:54;7.97;;;7.10;;
51961;SDS011;37986;51.238;17.128;2022-07-21T02:14:21;12.68;;;7.55;;
51961;SDS011;37986;51.238;17.128;2022-07-21T02:16:47;9.95;;;7.92;;
51961;SDS011;37986;51.238;17.128;2022-07-21T02:19:13;12.43;;;7.95;;
51961;SDS011;37986;51.238;17.128;2022-07-21T02:21:40;9.35;;;7.50;;
51961;SDS011;37986;51.238;17.128;2022-07-21T02:24:06;12.13;;;7.97;;
51961;SDS011;37986;51.238;17.128;2022-07-21T02:26:32;12.18;;;7.50;;
51961;SDS011;37986;51.238;17.128;2022-07-21T02:28:58;9.35;;;8.00;;
51961;SDS011;37986;51.238;17.128;2022-07-21T02:31:25;10.08;;;7.83;;
51961;SDS011;37986;51.238;17.128;2022-07-21T02:33:51;10.28;;;8.00;;
51961;SDS011;37986;51.238;17.128;2022-07-21T02:36:17;12.35;;;7.90;;
51961;SDS011;37986;51.238;17.128;2022-07-21T02:38:43;9.70;;;7.72;;
51961;SDS011;37986;51.238;17.128;2022-07-21T02:41:09;13.93;;;7.95;;
51961;SDS011;37986;51.238;17.128;2022-07-21T02:43:35;9.28;;;7.85;;
51961;SDS011;37986;51.238;17.128;2022-07-21T02:46:01;11.65;;;7.62;;
51961;SDS011;37986;51.238;17.128;2022-07-21T02:48:27;12.65;;;7.72;;
51961;SDS011;37986;51.238;17.128;2022-07-21T02:50:53;10.25;;;7.10;;
51961;SDS011;37986;51.238;17.128;2022-07-21T02:53:20;10.80;;;7.70;;
51961;SDS011;37986;51.238;17.128;2022-07-21T02:55:48;9.43;;;7.55;;
51961;SDS011;37986;51.238;17.128;2022-07-21T02:58:21;8.95;;;7.62;;
51961;SDS011;37986;51.238;17.128;2022-07-21T03:00:51;12.65;;;7.67;;
51961;SDS011;37986;51.238;17.128;2022-07-21T03:03:22;10.68;;;7.67;;
51961;SDS011;37986;51.238;17.128;2022-07-21T03:05:51;10.80;;;7.85;;
51961;SDS011;37986;51.238;17.128;2022-07-21T03:08:17;11.83;;;7.42;;
51961;SDS011;37986;51.238;17.128;2022-07-21T03:10:45;8.48;;;7.25;;
51961;SDS011;37986;51.238;17.128;2022-07-21T03:13:12;8.88;;;7.55;;
51961;SDS011;37986;51.238;17.128;2022-07-21T03:15:38;12.07;;;7.37;;
51961;SDS011;37986;51.238;17.128;2022-07-21T03:18:05;13.15;;;7.53;;
51961;SDS011;37986;51.238;17.128;2022-07-21T03:20:32;10.58;;;8.18;;
51961;SDS011;37986;51.238;17.128;2022-07-21T03:23:01;8.68;;;7.37;;
51961;SDS011;37986;51.238;17.128;2022-07-21T03:25:29;12.10;;;8.10;;
51961;SDS011;37986;51.238;17.128;2022-07-21T03:27:56;9.25;;;7.80;;
51961;SDS011;37986;51.238;17.128;2022-07-21T03:30:22;13.28;;;7.33;;
51961;SDS011;37986;51.238;17.128;2022-07-21T03:32:49;11.05;;;7.60;;
51961;SDS011;37986;51.238;17.128;2022-07-21T03:35:16;10.43;;;7.85;;
51961;SDS011;37986;51.238;17.128;2022-07-21T03:37:49;14.05;;;7.58;;
51961;SDS011;37986;51.238;17.128;2022-07-21T03:40:23;15.95;;;8.13;;
51961;SDS011;37986;51.238;17.128;2022-07-21T03:42:51;12.25;;;7.62;;
51961;SDS011;37986;51.238;17.128;2022-07-21T03:45:20;8.88;;;7.55;;
51961;SDS011;37986;51.238;17.128;2022-07-21T03:47:47;10.15;;;7.47;;
51961;SDS011;37986;51.238;17.128;2022-07-21T03:50:13;9.63;;;7.00;;
51961;SDS011;37986;51.238;17.128;2022-07-21T03:52:41;10.03;;;7.25;;
51961;SDS011;37986;51.238;17.128;2022-07-21T03:55:07;8.43;;;7.33;;
51961;SDS011;37986;51.238;17.128;2022-07-21T03:57:39;12.63;;;7.20;;
51961;SDS011;37986;51.238;17.128;2022-07-21T04:00:06;9.45;;;7.47;;
51961;SDS011;37986;51.238;17.128;2022-07-21T04:02:37;9.23;;;7.12;;
51961;SDS011;37986;51.238;17.128;2022-07-21T04:05:04;9.70;;;7.05;;
51961;SDS011;37986;51.238;17.128;2022-07-21T04:07:31;9.05;;;7.33;;
51961;SDS011;37986;51.238;17.128;2022-07-21T04:09:57;8.90;;;6.42;;
51961;SDS011;37986;51.238;17.128;2022-07-21T04:12:27;11.97;;;7.65;;
51961;SDS011;37986;51.238;17.128;2022-07-21T04:14:54;9.28;;;6.58;;
51961;SDS011;37986;51.238;17.128;2022-07-21T04:17:21;8.48;;;7.08;;
51961;SDS011;37986;51.238;17.128;2022-07-21T04:19:48;8.28;;;6.22;;
51961;SDS011;37986;51.238;17.128;2022-07-21T04:22:15;6.92;;;6.12;;
51961;SDS011;37986;51.238;17.128;2022-07-21T04:24:41;9.53;;;7.53;;
51961;SDS011;37986;51.238;17.128;2022-07-21T04:27:07;9.60;;;6.67;;
51961;SDS011;37986;51.238;17.128;2022-07-21T04:29:33;9.55;;;6.50;;
51961;SDS011;37986;51.238;17.128;2022-07-21T04:31:59;8.58;;;6.62;;
51961;SDS011;37986;51.238;17.128;2022-07-21T04:34:25;7.72;;;6.67;;
51961;SDS011;37986;51.238;17.128;2022-07-21T04:36:53;7.55;;;6.75;;
51961;SDS011;37986;51.238;17.128;2022-07-21T04:39:19;11.28;;;7.08;;
51961;SDS011;37986;51.238;17.128;2022-07-21T04:41:45;8.83;;;6.90;;
51961;SDS011;37986;51.238;17.128;2022-07-21T04:44:11;9.43;;;6.12;;
51961;SDS011;37986;51.238;17.128;2022-07-21T04:46:37;9.00;;;5.65;;
51961;SDS011;37986;51.238;17.128;2022-07-21T04:49:03;11.08;;;6.75;;
51961;SDS011;37986;51.238;17.128;2022-07-21T04:51:29;9.83;;;6.58;;
51961;SDS011;37986;51.238;17.128;2022-07-21T04:53:55;12.07;;;6.35;;
51961;SDS011;37986;51.238;17.128;2022-07-21T04:56:21;10.03;;;6.45;;
51961;SDS011;37986;51.238;17.128;2022-07-21T04:58:48;8.85;;;6.70;;
51961;SDS011;37986;51.238;17.128;2022-07-21T05:01:14;8.63;;;6.03;;
51961;SDS011;37986;51.238;17.128;2022-07-21T05:03:43;9.63;;;7.25;;
51961;SDS011;37986;51.238;17.128;2022-07-21T05:06:10;7.72;;;6.40;;
51961;SDS011;37986;51.238;17.128;2022-07-21T05:08:36;9.10;;;6.00;;
51961;SDS011;37986;51.238;17.128;2022-07-21T05:11:03;7.85;;;6.60;;
51961;SDS011;37986;51.238;17.128;2022-07-21T05:13:29;15.80;;;6.37;;
51961;SDS011;37986;51.238;17.128;2022-07-21T05:15:55;9.33;;;6.10;;
51961;SDS011;37986;51.238;17.128;2022-07-21T05:18:21;8.23;;;6.37;;
51961;SDS011;37986;51.238;17.128;2022-07-21T05:20:47;9.95;;;6.45;;
51961;SDS011;37986;51.238;17.128;2022-07-21T05:23:13;12.10;;;6.30;;
51961;SDS011;37986;51.238;17.128;2022-07-21T05:25:39;9.40;;;5.85;;
51961;SDS011;37986;51.238;17.128;2022-07-21T05:28:05;11.20;;;6.17;;
51961;SDS011;37986;51.238;17.128;2022-07-21T05:30:32;9.28;;;5.75;;
51961;SDS011;37986;51.238;17.128;2022-07-21T05:32:58;7.50;;;5.97;;
51961;SDS011;37986;51.238;17.128;2022-07-21T05:35:24;9.55;;;5.78;;
51961;SDS011;37986;51.238;17.128;2022-07-21T05:37:50;14.55;;;5.62;;
51961;SDS011;37986;51.238;17.128;2022-07-21T05:40:16;14.55;;;6.00;;
51961;SDS011;37986;51.238;17.128;2022-07-21T05:42:42;10.65;;;6.25;;
51961;SDS011;37986;51.238;17.128;2022-07-21T05:45:09;8.23;;;6.65;;
51961;SDS011;37986;51.238;17.128;2022-07-21T05:47:36;15.05;;;6.65;;
51961;SDS011;37986;51.238;17.128;2022-07-21T05:50:02;10.68;;;6.53;;
51961;SDS011;37986;51.238;17.128;2022-07-21T05:52:28;10.48;;;7.30;;
51961;SDS011;37986;51.238;17.128;2022-07-21T05:54:54;11.03;;;6.30;;
51961;SDS011;37986;51.238;17.128;2022-07-21T05:57:20;12.65;;;6.25;;
51961;SDS011;37986;51.238;17.128;2022-07-21T05:59:46;13.53;;;6.72;;
51961;SDS011;37986;51.238;17.128;2022-07-21T06:02:13;9.75;;;6.17;;
51961;SDS011;37986;51.238;17.128;2022-07-21T06:04:39;10.60;;;6.22;;
51961;SDS011;37986;51.238;17.128;2022-07-21T06:07:05;10.72;;;6.50;;
51961;SDS011;37986;51.238;17.128;2022-07-21T06:09:31;9.50;;;6.60;;
51961;SDS011;37986;51.238;17.128;2022-07-21T06:11:57;7.12;;;6.00;;
51961;SDS011;37986;51.238;17.128;2022-07-21T06:14:24;11.10;;;6.80;;
51961;SDS011;37986;51.238;17.128;2022-07-21T06:16:50;9.78;;;6.97;;
51961;SDS011;37986;51.238;17.128;2022-07-21T06:19:17;9.13;;;6.60;;
51961;SDS011;37986;51.238;17.128;2022-07-21T06:21:43;12.20;;;7.17;;
51961;SDS011;37986;51.238;17.128;2022-07-21T06:24:09;11.35;;;7.25;;
51961;SDS011;37986;51.238;17.128;2022-07-21T06:26:36;9.15;;;7.03;;
51961;SDS011;37986;51.238;17.128;2022-07-21T06:29:04;11.40;;;7.12;;
51961;SDS011;37986;51.238;17.128;2022-07-21T06:31:31;9.85;;;6.83;;
51961;SDS011;37986;51.238;17.128;2022-07-21T06:33:58;13.95;;;6.92;;
51961;SDS011;37986;51.238;17.128;2022-07-21T06:36:24;9.78;;;6.70;;
51961;SDS011;37986;51.238;17.128;2022-07-21T06:38:51;9.75;;;6.53;;
51961;SDS011;37986;51.238;17.128;2022-07-21T06:41:17;11.97;;;7.03;;
51961;SDS011;37986;51.238;17.128;2022-07-21T06:43:43;11.35;;;7.12;;
51961;SDS011;37986;51.238;17.128;2022-07-21T06:46:09;14.40;;;6.97;;
51961;SDS011;37986;51.238;17.128;2022-07-21T06:48:35;11.55;;;6.75;;
51961;SDS011;37986;51.238;17.128;2022-07-21T06:51:00;13.22;;;6.87;;
51961;SDS011;37986;51.238;17.128;2022-07-21T06:53:26;18.20;;;7.17;;
51961;SDS011;37986;51.238;17.128;2022-07-21T06:55:52;11.15;;;7.17;;
51961;SDS011;37986;51.238;17.128;2022-07-21T06:58:20;17.77;;;7.40;;
51961;SDS011;37986;51.238;17.128;2022-07-21T07:00:50;15.78;;;8.48;;
51961;SDS011;37986;51.238;17.128;2022-07-21T07:03:17;13.25;;;6.75;;
51961;SDS011;37986;51.238;17.128;2022-07-21T07:05:46;11.00;;;6.65;;
51961;SDS011;37986;51.238;17.128;2022-07-21T07:08:13;13.18;;;6.50;;
51961;SDS011;37986;51.238;17.128;2022-07-21T07:10:40;8.65;;;6.55;;
51961;SDS011;37986;51.238;17.128;2022-07-21T07:13:07;9.40;;;6.17;;
51961;SDS011;37986;51.238;17.128;2022-07-21T07:15:34;12.33;;;6.25;;
51961;SDS011;37986;51.238;17.128;2022-07-21T07:18:00;11.75;;;6.60;;
51961;SDS011;37986;51.238;17.128;2022-07-21T07:20:26;9.88;;;6.47;;
51961;SDS011;37986;51.238;17.128;2022-07-21T07:22:52;7.78;;;6.10;;
51961;SDS011;37986;51.238;17.128;2022-07-21T07:25:18;14.03;;;6.12;;
51961;SDS011;37986;51.238;17.128;2022-07-21T07:27:45;12.35;;;6.08;;
51961;SDS011;37986;51.238;17.128;2022-07-21T07:30:13;10.72;;;5.70;;
51961;SDS011;37986;51.238;17.128;2022-07-21T07:32:40;9.60;;;5.75;;
51961;SDS011;37986;51.238;17.128;2022-07-21T07:35:11;13.13;;;6.28;;
51961;SDS011;37986;51.238;17.128;2022-07-21T07:37:36;9.43;;;6.58;;
51961;SDS011;37986;51.238;17.128;2022-07-21T07:40:04;9.80;;;6.45;;
51961;SDS011;37986;51.238;17.128;2022-07-21T07:42:33;11.95;;;6.25;;
51961;SDS011;37986;51.238;17.128;2022-07-21T07:45:00;11.08;;;6.30;;
51961;SDS011;37986;51.238;17.128;2022-07-21T07:47:26;8.43;;;5.75;;
51961;SDS011;37986;51.238;17.128;2022-07-21T07:49:52;12.13;;;6.45;;
51961;SDS011;37986;51.238;17.128;2022-07-21T07:52:23;9.98;;;6.10;;
51961;SDS011;37986;51.238;17.128;2022-07-21T07:54:46;14.38;;;6.87;;
51961;SDS011;37986;51.238;17.128;2022-07-21T07:57:12;9.53;;;5.85;;
51961;SDS011;37986;51.238;17.128;2022-07-21T07:59:38;13.60;;;6.50;;
51961;SDS011;37986;51.238;17.128;2022-07-21T08:02:04;13.43;;;6.28;;
51961;SDS011;37986;51.238;17.128;2022-07-21T08:04:30;8.20;;;5.95;;
51961;SDS011;37986;51.238;17.128;2022-07-21T08:06:56;7.10;;;5.62;;
51961;SDS011;37986;51.238;17.128;2022-07-21T08:09:22;9.50;;;5.97;;
51961;SDS011;37986;51.238;17.128;2022-07-21T08:11:48;7.53;;;5.42;;
51961;SDS011;37986;51.238;17.128;2022-07-21T08:14:14;11.63;;;6.25;;
51961;SDS011;37986;51.238;17.128;2022-07-21T08:16:40;11.50;;;5.80;;
51961;SDS011;37986;51.238;17.128;2022-07-21T08:19:06;10.13;;;5.67;;
51961;SDS011;37986;51.238;17.128;2022-07-21T08:21:33;10.30;;;5.37;;
51961;SDS011;37986;51.238;17.128;2022-07-21T08:24:03;12.78;;;4.92;;
51961;SDS011;37986;51.238;17.128;2022-07-21T08:26:27;9.40;;;4.37;;
51961;SDS011;37986;51.238;17.128;2022-07-21T08:28:53;8.80;;;5.53;;
51961;SDS011;37986;51.238;17.128;2022-07-21T08:31:20;9.78;;;5.75;;
51961;SDS011;37986;51.238;17.128;2022-07-21T08:33:47;8.85;;;4.72;;
51961;SDS011;37986;51.238;17.128;2022-07-21T08:36:13;10.68;;;4.85;;
51961;SDS011;37986;51.238;17.128;2022-07-21T08:38:39;5.50;;;4.37;;
51961;SDS011;37986;51.238;17.128;2022-07-21T08:41:05;6.65;;;4.17;;
51961;SDS011;37986;51.238;17.128;2022-07-21T08:43:33;10.20;;;4.30;;
51961;SDS011;37986;51.238;17.128;2022-07-21T08:45:59;8.00;;;4.00;;
51961;SDS011;37986;51.238;17.128;2022-07-21T08:48:25;11.60;;;4.45;;
51961;SDS011;37986;51.238;17.128;2022-07-21T08:50:53;7.25;;;3.90;;
51961;SDS011;37986;51.238;17.128;2022-07-21T08:53:18;5.22;;;3.80;;
51961;SDS011;37986;51.238;17.128;2022-07-21T08:55:44;6.05;;;3.77;;
51961;SDS011;37986;51.238;17.128;2022-07-21T08:58:11;5.67;;;3.62;;
51961;SDS011;37986;51.238;17.128;2022-07-21T09:00:39;6.87;;;3.80;;
51961;SDS011;37986;51.238;17.128;2022-07-21T09:08:39;4.65;;;3.40;;
51961;SDS011;37986;51.238;17.128;2022-07-21T09:16:06;5.58;;;3.20;;
51961;SDS011;37986;51.238;17.128;2022-07-21T09:18:33;3.70;;;3.30;;
51961;SDS011;37986;51.238;17.128;2022-07-21T09:20:59;3.50;;;3.05;;
51961;SDS011;37986;51.238;17.128;2022-07-21T09:23:27;7.58;;;3.42;;
51961;SDS011;37986;51.238;17.128;2022-07-21T09:25:54;5.33;;;3.37;;
51961;SDS011;37986;51.238;17.128;2022-07-21T09:28:27;4.05;;;2.60;;
51961;SDS011;37986;51.238;17.128;2022-07-21T09:33:34;4.65;;;2.60;;
51961;SDS011;37986;51.238;17.128;2022-07-21T09:36:10;8.70;;;3.22;;
51961;SDS011;37986;51.238;17.128;2022-07-21T09:38:41;5.60;;;2.45;;
51961;SDS011;37986;51.238;17.128;2022-07-21T09:41:12;6.28;;;2.30;;
51961;SDS011;37986;51.238;17.128;2022-07-21T09:43:43;7.50;;;2.58;;
51961;SDS011;37986;51.238;17.128;2022-07-21T09:46:27;7.10;;;2.65;;
51961;SDS011;37986;51.238;17.128;2022-07-21T09:48:54;4.87;;;2.42;;
51961;SDS011;37986;51.238;17.128;2022-07-21T09:51:24;3.58;;;2.27;;
51961;SDS011;37986;51.238;17.128;2022-07-21T09:54:03;5.17;;;2.27;;
51961;SDS011;37986;51.238;17.128;2022-07-21T09:56:39;11.00;;;3.00;;
51961;SDS011;37986;51.238;17.128;2022-07-21T09:59:08;6.00;;;2.22;;
51961;SDS011;37986;51.238;17.128;2022-07-21T10:01:37;5.37;;;2.45;;
51961;SDS011;37986;51.238;17.128;2022-07-21T10:04:04;4.45;;;2.05;;
51961;SDS011;37986;51.238;17.128;2022-07-21T10:06:34;5.83;;;2.55;;
51961;SDS011;37986;51.238;17.128;2022-07-21T10:09:03;3.90;;;2.30;;
51961;SDS011;37986;51.238;17.128;2022-07-21T10:11:32;3.90;;;2.30;;
51961;SDS011;37986;51.238;17.128;2022-07-21T10:13:58;4.58;;;2.10;;
51961;SDS011;37986;51.238;17.128;2022-07-21T10:16:24;4.35;;;1.85;;
51961;SDS011;37986;51.238;17.128;2022-07-21T10:21:55;5.70;;;2.22;;
51961;SDS011;37986;51.238;17.128;2022-07-21T10:24:27;4.05;;;2.47;;
51961;SDS011;37986;51.238;17.128;2022-07-21T10:27:12;4.10;;;2.17;;
51961;SDS011;37986;51.238;17.128;2022-07-21T10:29:54;7.55;;;2.58;;
51961;SDS011;37986;51.238;17.128;2022-07-21T10:32:20;3.90;;;2.12;;
51961;SDS011;37986;51.238;17.128;2022-07-21T10:34:51;5.00;;;2.30;;
51961;SDS011;37986;51.238;17.128;2022-07-21T10:48:02;3.45;;;2.08;;
51961;SDS011;37986;51.238;17.128;2022-07-21T10:50:39;4.03;;;2.67;;
51961;SDS011;37986;51.238;17.128;2022-07-21T10:53:13;5.75;;;2.20;;
51961;SDS011;37986;51.238;17.128;2022-07-21T10:55:52;6.40;;;2.22;;
51961;SDS011;37986;51.238;17.128;2022-07-21T10:58:26;4.45;;;2.15;;
51961;SDS011;37986;51.238;17.128;2022-07-21T11:03:33;7.15;;;2.00;;
51961;SDS011;37986;51.238;17.128;2022-07-21T11:14:10;6.03;;;2.20;;
51961;SDS011;37986;51.238;17.128;2022-07-21T11:22:17;5.08;;;2.45;;
51961;SDS011;37986;51.238;17.128;2022-07-21T11:24:47;3.40;;;1.57;;
51961;SDS011;37986;51.238;17.128;2022-07-21T11:27:17;5.40;;;1.70;;
51961;SDS011;37986;51.238;17.128;2022-07-21T11:29:47;6.37;;;1.92;;
51961;SDS011;37986;51.238;17.128;2022-07-21T11:32:15;3.02;;;1.77;;
51961;SDS011;37986;51.238;17.128;2022-07-21T11:34:51;6.97;;;2.10;;
51961;SDS011;37986;51.238;17.128;2022-07-21T11:37:17;3.35;;;1.90;;
51961;SDS011;37986;51.238;17.128;2022-07-21T11:42:43;6.00;;;1.65;;
51961;SDS011;37986;51.238;17.128;2022-07-21T11:45:12;5.87;;;1.62;;
51961;SDS011;37986;51.238;17.128;2022-07-21T11:47:39;5.62;;;1.70;;
51961;SDS011;37986;51.238;17.128;2022-07-21T11:50:07;6.10;;;1.80;;
51961;SDS011;37986;51.238;17.128;2022-07-21T11:52:36;8.95;;;1.80;;
51961;SDS011;37986;51.238;17.128;2022-07-21T11:55:04;5.22;;;1.60;;
51961;SDS011;37986;51.238;17.128;2022-07-21T11:57:33;3.40;;;1.80;;
51961;SDS011;37986;51.238;17.128;2022-07-21T12:00:00;4.80;;;1.72;;
51961;SDS011;37986;51.238;17.128;2022-07-21T12:02:29;7.53;;;1.65;;
51961;SDS011;37986;51.238;17.128;2022-07-21T12:04:59;6.87;;;1.92;;
51961;SDS011;37986;51.238;17.128;2022-07-21T12:07:30;3.12;;;1.85;;
51961;SDS011;37986;51.238;17.128;2022-07-21T12:10:04;3.33;;;1.62;;
51961;SDS011;37986;51.238;17.128;2022-07-21T12:12:45;4.03;;;1.70;;
51961;SDS011;37986;51.238;17.128;2022-07-21T12:17:49;5.25;;;1.70;;
51961;SDS011;37986;51.238;17.128;2022-07-21T12:20:23;5.30;;;1.85;;
51961;SDS011;37986;51.238;17.128;2022-07-21T12:22:58;6.62;;;2.10;;
51961;SDS011;37986;51.238;17.128;2022-07-21T12:25:34;6.47;;;2.30;;
51961;SDS011;37986;51.238;17.128;2022-07-21T12:28:04;7.55;;;2.08;;
51961;SDS011;37986;51.238;17.128;2022-07-21T12:30:37;7.30;;;1.98;;
51961;SDS011;37986;51.238;17.128;2022-07-21T12:33:16;7.42;;;1.90;;
51961;SDS011;37986;51.238;17.128;2022-07-21T12:35:58;4.67;;;1.98;;
51961;SDS011;37986;51.238;17.128;2022-07-21T12:38:37;4.78;;;2.25;;
51961;SDS011;37986;51.238;17.128;2022-07-21T12:41:07;10.60;;;2.20;;
51961;SDS011;37986;51.238;17.128;2022-07-21T12:43:37;5.22;;;2.27;;
51961;SDS011;37986;51.238;17.128;2022-07-21T12:46:13;5.83;;;2.12;;
51961;SDS011;37986;51.238;17.128;2022-07-21T12:48:45;8.25;;;1.92;;
51961;SDS011;37986;51.238;17.128;2022-07-21T12:51:20;7.35;;;2.35;;
51961;SDS011;37986;51.238;17.128;2022-07-21T12:53:50;3.95;;;2.00;;
51961;SDS011;37986;51.238;17.128;2022-07-21T12:56:20;5.87;;;1.60;;
51961;SDS011;37986;51.238;17.128;2022-07-21T12:58:52;6.17;;;2.05;;
51961;SDS011;37986;51.238;17.128;2022-07-21T13:01:23;7.83;;;2.30;;
51961;SDS011;37986;51.238;17.128;2022-07-21T13:03:51;3.15;;;1.90;;
51961;SDS011;37986;51.238;17.128;2022-07-21T13:06:19;3.27;;;1.77;;
51961;SDS011;37986;51.238;17.128;2022-07-21T13:08:48;9.18;;;2.47;;
51961;SDS011;37986;51.238;17.128;2022-07-21T13:11:16;5.62;;;1.95;;
51961;SDS011;37986;51.238;17.128;2022-07-21T13:13:48;8.48;;;2.02;;
51961;SDS011;37986;51.238;17.128;2022-07-21T13:16:17;7.15;;;2.25;;
51961;SDS011;37986;51.238;17.128;2022-07-21T13:18:45;5.65;;;2.10;;
51961;SDS011;37986;51.238;17.128;2022-07-21T13:21:12;16.32;;;2.75;;
51961;SDS011;37986;51.238;17.128;2022-07-21T13:23:39;13.03;;;2.50;;
51961;SDS011;37986;51.238;17.128;2022-07-21T13:26:06;5.78;;;2.83;;
51961;SDS011;37986;51.238;17.128;2022-07-21T13:28:32;12.13;;;2.60;;
51961;SDS011;37986;51.238;17.128;2022-07-21T13:31:00;5.60;;;2.80;;
51961;SDS011;37986;51.238;17.128;2022-07-21T13:33:27;3.90;;;2.47;;
51961;SDS011;37986;51.238;17.128;2022-07-21T13:35:53;8.00;;;2.47;;
51961;SDS011;37986;51.238;17.128;2022-07-21T13:38:20;13.03;;;2.40;;
51961;SDS011;37986;51.238;17.128;2022-07-21T13:40:46;11.60;;;2.92;;
51961;SDS011;37986;51.238;17.128;2022-07-21T13:43:12;9.00;;;3.20;;
51961;SDS011;37986;51.238;17.128;2022-07-21T13:45:40;11.68;;;2.92;;
51961;SDS011;37986;51.238;17.128;2022-07-21T13:48:06;10.20;;;3.08;;
51961;SDS011;37986;51.238;17.128;2022-07-21T13:50:33;7.40;;;3.00;;
51961;SDS011;37986;51.238;17.128;2022-07-21T13:53:00;9.65;;;3.10;;
51961;SDS011;37986;51.238;17.128;2022-07-21T13:55:27;6.33;;;2.85;;
51961;SDS011;37986;51.238;17.128;2022-07-21T13:57:54;7.42;;;3.02;;
51961;SDS011;37986;51.238;17.128;2022-07-21T14:00:21;6.33;;;3.08;;
51961;SDS011;37986;51.238;17.128;2022-07-21T14:02:48;8.63;;;3.00;;
51961;SDS011;37986;51.238;17.128;2022-07-21T14:05:14;8.88;;;3.67;;
51961;SDS011;37986;51.238;17.128;2022-07-21T14:07:41;9.50;;;2.80;;
51961;SDS011;37986;51.238;17.128;2022-07-21T14:10:08;12.65;;;3.30;;
51961;SDS011;37986;51.238;17.128;2022-07-21T14:12:35;6.58;;;3.20;;
51961;SDS011;37986;51.238;17.128;2022-07-21T14:15:02;7.40;;;3.10;;
51961;SDS011;37986;51.238;17.128;2022-07-21T14:17:31;5.75;;;2.90;;
51961;SDS011;37986;51.238;17.128;2022-07-21T14:19:58;7.03;;;2.70;;
51961;SDS011;37986;51.238;17.128;2022-07-21T14:22:24;7.95;;;2.65;;
51961;SDS011;37986;51.238;17.128;2022-07-21T14:24:51;4.10;;;2.00;;
51961;SDS011;37986;51.238;17.128;2022-07-21T14:27:36;6.90;;;2.30;;
51961;SDS011;37986;51.238;17.128;2022-07-21T14:30:03;10.58;;;2.52;;
51961;SDS011;37986;51.238;17.128;2022-07-21T14:32:31;7.33;;;2.85;;
51961;SDS011;37986;51.238;17.128;2022-07-21T14:34:57;4.95;;;2.37;;
51961;SDS011;37986;51.238;17.128;2022-07-21T14:37:25;8.98;;;2.30;;
51961;SDS011;37986;51.238;17.128;2022-07-21T14:39:51;8.45;;;2.80;;
51961;SDS011;37986;51.238;17.128;2022-07-21T14:42:17;8.65;;;2.55;;
51961;SDS011;37986;51.238;17.128;2022-07-21T14:44:44;9.50;;;3.30;;
51961;SDS011;37986;51.238;17.128;2022-07-21T14:47:11;6.17;;;2.75;;
51961;SDS011;37986;51.238;17.128;2022-07-21T14:49:38;7.22;;;3.00;;
51961;SDS011;37986;51.238;17.128;2022-07-21T14:52:04;7.22;;;3.10;;
51961;SDS011;37986;51.238;17.128;2022-07-21T14:54:31;7.95;;;2.65;;
51961;SDS011;37986;51.238;17.128;2022-07-21T14:56:59;7.30;;;3.08;;
51961;SDS011;37986;51.238;17.128;2022-07-21T14:59:26;7.87;;;2.90;;
51961;SDS011;37986;51.238;17.128;2022-07-21T15:01:52;16.67;;;3.50;;
51961;SDS011;37986;51.238;17.128;2022-07-21T15:04:19;21.90;;;2.80;;
51961;SDS011;37986;51.238;17.128;2022-07-21T15:06:47;13.22;;;3.00;;
51961;SDS011;37986;51.238;17.128;2022-07-21T15:09:14;9.40;;;2.98;;
51961;SDS011;37986;51.238;17.128;2022-07-21T15:11:41;10.13;;;3.70;;
51961;SDS011;37986;51.238;17.128;2022-07-21T15:14:08;12.45;;;3.52;;
51961;SDS011;37986;51.238;17.128;2022-07-21T15:16:35;8.40;;;3.20;;
51961;SDS011;37986;51.238;17.128;2022-07-21T15:19:02;21.12;;;3.40;;
51961;SDS011;37986;51.238;17.128;2022-07-21T15:21:29;15.35;;;3.40;;
51961;SDS011;37986;51.238;17.128;2022-07-21T15:23:55;7.03;;;2.98;;